Retether
| Name | Retether |
|---|---|
| Type | Sorcery |
| Description | Return each Aura card from your graveyard to the battlefield. Only creatures can be enchanted this way. (Aura cards that can't enchant a creature on the battlefield remain in your graveyard.) |
| Flavor | Las grietas alcanzan infinitas líneas temporales, trayendo al presente los resultados de divergentes pasados alternativos. |
| Artist | Dan Murayama Scott |
| Set | Wilds of Eldraine Commander #72 |
| Wallpaper | |
| Image |
About Retether
Retether, Sorcery, designed by Dan Murayama Scott first released in February 2007 in the set Planar Chaos and was printed exactly in 2 different ways. It's currently being selled by the minimum price of 134.07.
Retether is best in a dedicated Aura or “Enchantress” deck—especially a Voltron strategy that enchants one or more creatures, uses sacrifice effects, self-mill, or expects its Auras to be destroyed—because it can rebuild a powerful board after a wipe for only four mana; however, it should not usually be an automatic inclusion in casual or competitive decks unless you have a high Aura count and reliable creatures to enchant. The main upgrade is **Replenish**, which costs the same 3W but returns **all enchantment cards** from your graveyard, including non-Aura enchantments, making it more flexible and generally stronger; **Brilliant Restoration** and **Open the Vaults** are also broader options but cost more or help opponents. Retether is therefore a good budget or highly focused recursion spell for Aura-heavy decks, but Replenish is usually the better choice when available.
Rules
02/01/2007
All the Auras return to the battlefield simultaneously. Whether an Aura can be attached to a creature is checked before any of them are returned and doesn’t take into account any simultaneously returning Auras. For example, if Tattoo Ward (which gives enchanted creature protection from enchantments) and Holy Strength are in your graveyard and there’s only one creature on the battlefield, both Auras are returned to the battlefield attached to that creature, then Holy Strength is put into your graveyard the next time state-based actions are checked.
Where to buy
![]() | TCG Player | 8 uni.
| 23.82 | Visit store |
![]() | Card Kingdom | 40 uni.
| 30.75 | Visit store |
![]() | Ebay.com | Visit store | ||
![]() | Cardkingdom | Visit store | ||
![]() | Printing proxies | $ 0.75 | Visit store |
*This site contains affiliate links for which we may be compensated
Group by
Price alert ?
Alert me when price gets to
Price trend history

Price history
| Date | Minimum price | Median price | Decks |
|---|---|---|---|
| 2024-09-07 | 11.50 SEK | 30.43 SEK | 3 |
| 2024-09-09 | 11.82 SEK | 30.16 SEK | 3 |
| 2024-09-16 | 13.08 SEK | 29.42 SEK | 3 |
| 2024-09-23 | 13.27 SEK | 29.39 SEK | 1 |
| 2024-09-30 | 13.22 SEK | 29.28 SEK | 0 |
| 2024-10-07 | 13.22 SEK | 30.97 SEK | 0 |
| 2024-10-14 | 13.70 SEK | 31.61 SEK | 3 |
| 2024-10-21 | 13.62 SEK | 32.92 SEK | 1 |
| 2024-10-28 | 13.70 SEK | 33.03 SEK | 0 |
| 2024-11-06 | 13.17 SEK | 32.28 SEK | 0 |
| 2024-11-11 | 13.46 SEK | 31.69 SEK | 0 |
| 2024-11-18 | 13.94 SEK | 32.64 SEK | 0 |
| 2024-11-25 | 13.70 SEK | 33.20 SEK | 1 |
| 2024-12-02 | 13.51 SEK | 33.57 SEK | 0 |
| 2024-12-09 | 13.85 SEK | 33.72 SEK | 4 |
| 2024-12-19 | 13.85 SEK | 33.72 SEK | 1 |
| 2024-12-23 | 13.85 SEK | 33.72 SEK | 1 |
| 2024-12-30 | 13.85 SEK | 33.72 SEK | 0 |
| 2025-01-01 | 13.85 SEK | 33.72 SEK | 0 |
| 2025-01-06 | 13.85 SEK | 33.72 SEK | 1 |
| 2025-01-13 | 13.85 SEK | 33.72 SEK | 0 |
| 2025-01-20 | 13.85 SEK | 33.72 SEK | 0 |
| 2025-01-27 | 13.85 SEK | 33.72 SEK | 0 |
| 2025-02-03 | 13.85 SEK | 33.72 SEK | 0 |
| 2025-02-10 | 13.85 SEK | 33.72 SEK | 1 |
| 2025-02-18 | 18.32 SEK | 30.17 SEK | 1 |
| 2025-04-27 | 37.08 SEK | 42.49 SEK | 1 |
| 2025-04-28 | 35.38 SEK | 43.52 SEK | 1 |
| 2025-05-06 | 46.68 SEK | 51.02 SEK | 0 |
| 2025-05-12 | 52.66 SEK | 56.21 SEK | 0 |
| 2025-05-19 | 56.17 SEK | 57.34 SEK | 0 |
| 2025-05-28 | 57.28 SEK | 61.66 SEK | 0 |
| 2025-06-03 | 53.23 SEK | 60.82 SEK | 0 |
| 2025-06-10 | 35.19 SEK | 56.66 SEK | 1 |
| 2025-06-17 | 41.37 SEK | 58.31 SEK | 0 |
| 2025-06-23 | 39.10 SEK | 56.65 SEK | 0 |
| 2025-07-01 | 36.17 SEK | 54.65 SEK | 1 |
| 2025-07-08 | 28.17 SEK | 52.88 SEK | 0 |
| 2025-07-15 | 28.66 SEK | 51.27 SEK | 1 |
| 2025-07-22 | 28.73 SEK | 50.31 SEK | 0 |
| 2025-07-29 | 28.72 SEK | 32.61 SEK | 1 |
| 2025-08-05 | 28.55 SEK | 28.55 SEK | 1 |
| 2025-08-12 | 30.55 SEK | 45.63 SEK | 0 |
| 2025-08-18 | 30.43 SEK | 51.10 SEK | 0 |
| 2025-08-25 | 29.00 SEK | 51.09 SEK | 0 |
| 2025-09-02 | 27.37 SEK | 53.03 SEK | 0 |
| 2025-09-09 | 27.37 SEK | 52.94 SEK | 0 |
| 2025-09-15 | 57.02 SEK | 62.11 SEK | 0 |
| 2025-09-23 | 43.35 SEK | 56.50 SEK | 1 |
| 2025-09-29 | 32.13 SEK | 49.83 SEK | 0 |
| 2025-10-06 | 37.79 SEK | 51.31 SEK | 0 |
| 2025-10-13 | 45.64 SEK | 53.87 SEK | 0 |
| 2025-10-20 | 45.19 SEK | 52.77 SEK | 1 |
| 2025-10-27 | 46.23 SEK | 53.21 SEK | 0 |
| 2025-11-03 | 48.50 SEK | 55.85 SEK | 0 |
| 2025-11-10 | 46.60 SEK | 55.48 SEK | 0 |
| 2025-11-18 | 50.50 SEK | 57.43 SEK | 0 |
| 2025-11-24 | 51.76 SEK | 58.42 SEK | 0 |
| 2025-12-03 | 43.30 SEK | 55.88 SEK | 0 |
| 2025-12-08 | 53.18 SEK | 62.07 SEK | 1 |
| 2025-12-15 | 48.69 SEK | 62.42 SEK | 1 |
| 2025-12-22 | 43.38 SEK | 60.40 SEK | 0 |
| 2025-12-29 | 48.90 SEK | 63.14 SEK | 1 |
| 2026-01-01 | 54.38 SEK | 65.66 SEK | 0 |
| 2026-01-05 | 54.39 SEK | 65.06 SEK | 0 |
| 2026-01-13 | 55.15 SEK | 65.21 SEK | 1 |
| 2026-01-20 | 53.74 SEK | 66.16 SEK | 1 |
| 2026-01-26 | 53.65 SEK | 66.07 SEK | 1 |
| 2026-02-02 | 58.17 SEK | 70.73 SEK | 0 |
| 2026-02-09 | 55.65 SEK | 69.18 SEK | 0 |
| 2026-02-16 | 58.63 SEK | 70.67 SEK | 0 |
| 2026-02-23 | 46.58 SEK | 67.52 SEK | 0 |
| 2026-03-02 | 56.62 SEK | 74.42 SEK | 0 |
| 2026-03-10 | 53.84 SEK | 73.01 SEK | 1 |
| 2026-03-16 | 51.83 SEK | 72.77 SEK | 0 |
| 2026-04-02 | 53.88 SEK | 70.93 SEK | 0 |
| 2026-04-07 | 62.38 SEK | 71.58 SEK | 0 |
| 2026-04-14 | 143.01 SEK | 143.01 SEK | 1 |
| 2026-04-23 | 142.15 SEK | 162.21 SEK | 0 |
| 2026-04-30 | 174.58 SEK | 179.54 SEK | 0 |
| 2026-05-05 | 191.87 SEK | 196.33 SEK | 0 |
| 2026-05-14 | 184.07 SEK | 190.10 SEK | 1 |
| 2026-05-20 | 200.77 SEK | 203.88 SEK | 1 |
| 2026-05-25 | 204.76 SEK | 228.85 SEK | 0 |
| 2026-06-01 | 196.45 SEK | 243.91 SEK | 1 |
| 2026-06-08 | 199.05 SEK | 264.12 SEK | 0 |
| 2026-06-15 | 196.06 SEK | 264.17 SEK | 1 |
| 2026-06-23 | 203.65 SEK | 260.87 SEK | 1 |
| 2026-06-29 | 211.00 SEK | 255.34 SEK | 0 |
| 2026-07-06 | 209.05 SEK | 251.00 SEK | 0 |
| 2026-07-13 | 204.32 SEK | 237.66 SEK | 0 |
| 2026-07-20 | 189.96 SEK | 225.85 SEK | 0 |
| 2026-07-27 | 181.51 SEK | 216.03 SEK | 0 |
| 2026-08-03 | 175.98 SEK | 208.57 SEK | 0 |
| 2026-08-10 | 150.75 SEK | 195.53 SEK | 0 |
| 2026-08-17 | 139.63 SEK | 176.24 SEK | 0 |
| 2026-08-24 | 132.47 SEK | 169.57 SEK | 0 |
| 2026-09-01 | 133.06 SEK | 168.53 SEK | 0 |
Frequently asked questions about Retether
What type of card is Retether?
Retether is a Sorcery card in Magic: the Gathering MTG.
What is the effect of Retether?
Return each Aura card from your graveyard to the battlefield. Only creatures can be enchanted this way. (Aura cards that can't enchant a creature on the battlefield remain in your graveyard.)
What is the price of Retether?
Retether currently starts at 134.07. See live prices from multiple sellers in the Where to buy section above.
What is the original set of Retether?
Retether was first released in the set Planar Chaos, illustrated by Dan Murayama Scott.
What is the legality of Retether?
Legality depends on the tournament format -- Retether can be legal in some formats and banned or restricted in others. See the full breakdown per format in the Legality section above.
What cards are similar to Retether?
Cards similar to Retether include Screams from Within. See the full list in the Similar cards section above.






Reactions
0
0 Comments
Be the first to comment